sensor_id;sensor_type;location;lat;lon;timestamp;P1;durP1;ratioP1;P2;durP2;ratioP2
8596;SDS011;4336;49.310;8.646;2023-02-22T00:00:38;22.83;;;14.90;;
8596;SDS011;4336;49.310;8.646;2023-02-22T00:03:13;17.77;;;15.20;;
8596;SDS011;4336;49.310;8.646;2023-02-22T00:05:40;18.33;;;15.10;;
8596;SDS011;4336;49.310;8.646;2023-02-22T00:08:11;17.43;;;15.13;;
8596;SDS011;4336;49.310;8.646;2023-02-22T00:10:38;23.33;;;18.50;;
8596;SDS011;4336;49.310;8.646;2023-02-22T00:13:05;24.70;;;18.87;;
8596;SDS011;4336;49.310;8.646;2023-02-22T00:15:31;25.00;;;19.97;;
8596;SDS011;4336;49.310;8.646;2023-02-22T00:17:58;23.47;;;19.43;;
8596;SDS011;4336;49.310;8.646;2023-02-22T00:20:24;25.83;;;19.17;;
8596;SDS011;4336;49.310;8.646;2023-02-22T00:22:52;24.33;;;20.63;;
8596;SDS011;4336;49.310;8.646;2023-02-22T00:25:19;28.13;;;21.47;;
8596;SDS011;4336;49.310;8.646;2023-02-22T00:27:45;28.27;;;20.77;;
8596;SDS011;4336;49.310;8.646;2023-02-22T00:30:16;25.50;;;20.47;;
8596;SDS011;4336;49.310;8.646;2023-02-22T00:32:44;24.57;;;20.97;;
8596;SDS011;4336;49.310;8.646;2023-02-22T00:35:12;24.47;;;19.53;;
8596;SDS011;4336;49.310;8.646;2023-02-22T00:37:39;25.00;;;19.43;;
8596;SDS011;4336;49.310;8.646;2023-02-22T00:40:08;28.53;;;20.20;;
8596;SDS011;4336;49.310;8.646;2023-02-22T00:42:35;28.20;;;20.33;;
8596;SDS011;4336;49.310;8.646;2023-02-22T00:45:01;25.27;;;18.53;;
8596;SDS011;4336;49.310;8.646;2023-02-22T00:47:27;23.97;;;18.73;;
8596;SDS011;4336;49.310;8.646;2023-02-22T00:49:54;26.63;;;18.67;;
8596;SDS011;4336;49.310;8.646;2023-02-22T00:52:20;22.87;;;18.03;;
8596;SDS011;4336;49.310;8.646;2023-02-22T00:54:46;27.07;;;18.57;;
8596;SDS011;4336;49.310;8.646;2023-02-22T00:57:13;21.17;;;17.83;;
8596;SDS011;4336;49.310;8.646;2023-02-22T00:59:39;21.70;;;17.17;;
8596;SDS011;4336;49.310;8.646;2023-02-22T01:02:05;21.07;;;16.50;;
8596;SDS011;4336;49.310;8.646;2023-02-22T01:04:33;21.10;;;16.97;;
8596;SDS011;4336;49.310;8.646;2023-02-22T01:06:59;21.53;;;17.13;;
8596;SDS011;4336;49.310;8.646;2023-02-22T01:09:26;21.50;;;17.97;;
8596;SDS011;4336;49.310;8.646;2023-02-22T01:11:52;20.20;;;15.47;;
8596;SDS011;4336;49.310;8.646;2023-02-22T01:14:22;21.90;;;16.53;;
8596;SDS011;4336;49.310;8.646;2023-02-22T01:16:51;23.23;;;17.23;;
8596;SDS011;4336;49.310;8.646;2023-02-22T01:19:18;20.40;;;16.90;;
8596;SDS011;4336;49.310;8.646;2023-02-22T01:21:45;21.63;;;17.03;;
8596;SDS011;4336;49.310;8.646;2023-02-22T01:24:11;18.37;;;15.33;;
8596;SDS011;4336;49.310;8.646;2023-02-22T01:26:47;18.13;;;15.33;;
8596;SDS011;4336;49.310;8.646;2023-02-22T01:29:14;28.47;;;16.00;;
8596;SDS011;4336;49.310;8.646;2023-02-22T01:31:41;17.87;;;15.97;;
8596;SDS011;4336;49.310;8.646;2023-02-22T01:34:10;18.07;;;14.40;;
8596;SDS011;4336;49.310;8.646;2023-02-22T01:36:37;19.13;;;15.30;;
8596;SDS011;4336;49.310;8.646;2023-02-22T01:39:07;19.20;;;14.97;;
8596;SDS011;4336;49.310;8.646;2023-02-22T01:41:36;17.20;;;15.40;;
8596;SDS011;4336;49.310;8.646;2023-02-22T01:46:49;21.30;;;16.77;;
8596;SDS011;4336;49.310;8.646;2023-02-22T01:49:15;22.03;;;17.17;;
8596;SDS011;4336;49.310;8.646;2023-02-22T01:51:46;18.90;;;15.13;;
8596;SDS011;4336;49.310;8.646;2023-02-22T01:54:17;17.73;;;15.83;;
8596;SDS011;4336;49.310;8.646;2023-02-22T01:56:46;22.43;;;17.20;;
8596;SDS011;4336;49.310;8.646;2023-02-22T01:59:15;18.90;;;16.70;;
8596;SDS011;4336;49.310;8.646;2023-02-22T02:01:42;19.77;;;16.10;;
8596;SDS011;4336;49.310;8.646;2023-02-22T02:04:10;21.87;;;16.77;;
8596;SDS011;4336;49.310;8.646;2023-02-22T02:06:36;19.13;;;17.10;;
8596;SDS011;4336;49.310;8.646;2023-02-22T02:09:07;21.00;;;16.33;;
8596;SDS011;4336;49.310;8.646;2023-02-22T02:11:35;22.63;;;16.73;;
8596;SDS011;4336;49.310;8.646;2023-02-22T02:14:05;24.07;;;16.73;;
8596;SDS011;4336;49.310;8.646;2023-02-22T02:16:36;20.30;;;15.80;;
8596;SDS011;4336;49.310;8.646;2023-02-22T02:19:03;18.40;;;15.97;;
8596;SDS011;4336;49.310;8.646;2023-02-22T02:21:38;21.07;;;16.93;;
8596;SDS011;4336;49.310;8.646;2023-02-22T02:36:33;20.80;;;17.13;;
8596;SDS011;4336;49.310;8.646;2023-02-22T02:39:08;26.10;;;17.60;;
8596;SDS011;4336;49.310;8.646;2023-02-22T02:41:39;18.23;;;16.33;;
8596;SDS011;4336;49.310;8.646;2023-02-22T02:44:10;19.77;;;16.57;;
8596;SDS011;4336;49.310;8.646;2023-02-22T02:49:20;18.67;;;16.17;;
8596;SDS011;4336;49.310;8.646;2023-02-22T02:51:49;18.60;;;16.20;;
8596;SDS011;4336;49.310;8.646;2023-02-22T02:54:19;20.30;;;17.23;;
8596;SDS011;4336;49.310;8.646;2023-02-22T02:56:46;20.23;;;16.47;;
8596;SDS011;4336;49.310;8.646;2023-02-22T02:59:23;22.70;;;18.07;;
8596;SDS011;4336;49.310;8.646;2023-02-22T03:02:00;21.87;;;17.40;;
8596;SDS011;4336;49.310;8.646;2023-02-22T03:17:03;21.40;;;16.27;;
8596;SDS011;4336;49.310;8.646;2023-02-22T03:19:53;23.80;;;18.37;;
8596;SDS011;4336;49.310;8.646;2023-02-22T03:22:21;21.33;;;16.27;;
8596;SDS011;4336;49.310;8.646;2023-02-22T03:24:58;20.37;;;16.40;;
8596;SDS011;4336;49.310;8.646;2023-02-22T03:30:04;19.07;;;16.60;;
8596;SDS011;4336;49.310;8.646;2023-02-22T03:32:35;24.07;;;18.30;;
8596;SDS011;4336;49.310;8.646;2023-02-22T03:35:05;20.57;;;16.87;;
8596;SDS011;4336;49.310;8.646;2023-02-22T03:37:36;19.67;;;16.37;;
8596;SDS011;4336;49.310;8.646;2023-02-22T03:40:04;20.30;;;16.40;;
8596;SDS011;4336;49.310;8.646;2023-02-22T03:42:39;19.63;;;16.53;;
8596;SDS011;4336;49.310;8.646;2023-02-22T03:45:06;23.20;;;19.00;;
8596;SDS011;4336;49.310;8.646;2023-02-22T03:47:38;22.53;;;16.33;;
8596;SDS011;4336;49.310;8.646;2023-02-22T03:50:08;20.70;;;16.80;;
8596;SDS011;4336;49.310;8.646;2023-02-22T03:52:36;22.07;;;17.63;;
8596;SDS011;4336;49.310;8.646;2023-02-22T03:55:07;21.47;;;17.63;;
8596;SDS011;4336;49.310;8.646;2023-02-22T03:57:36;22.27;;;17.77;;
8596;SDS011;4336;49.310;8.646;2023-02-22T04:00:07;22.47;;;17.77;;
8596;SDS011;4336;49.310;8.646;2023-02-22T04:02:42;19.70;;;17.20;;
8596;SDS011;4336;49.310;8.646;2023-02-22T04:05:14;18.20;;;16.20;;
8596;SDS011;4336;49.310;8.646;2023-02-22T04:07:41;20.30;;;16.27;;
8596;SDS011;4336;49.310;8.646;2023-02-22T04:10:09;20.73;;;16.40;;
8596;SDS011;4336;49.310;8.646;2023-02-22T04:12:36;21.13;;;18.87;;
8596;SDS011;4336;49.310;8.646;2023-02-22T04:15:05;19.90;;;17.67;;
8596;SDS011;4336;49.310;8.646;2023-02-22T04:17:31;19.00;;;16.60;;
8596;SDS011;4336;49.310;8.646;2023-02-22T04:19:59;22.30;;;18.60;;
8596;SDS011;4336;49.310;8.646;2023-02-22T04:22:32;20.03;;;16.43;;
8596;SDS011;4336;49.310;8.646;2023-02-22T04:24:58;20.93;;;17.00;;
8596;SDS011;4336;49.310;8.646;2023-02-22T04:27:25;23.27;;;18.13;;
8596;SDS011;4336;49.310;8.646;2023-02-22T04:29:53;18.97;;;16.13;;
8596;SDS011;4336;49.310;8.646;2023-02-22T04:32:20;19.63;;;15.70;;
8596;SDS011;4336;49.310;8.646;2023-02-22T04:34:46;19.73;;;15.80;;
8596;SDS011;4336;49.310;8.646;2023-02-22T04:37:12;18.80;;;16.80;;
8596;SDS011;4336;49.310;8.646;2023-02-22T04:39:38;16.77;;;14.97;;
8596;SDS011;4336;49.310;8.646;2023-02-22T04:42:05;22.73;;;15.93;;
8596;SDS011;4336;49.310;8.646;2023-02-22T04:44:32;17.87;;;15.00;;
8596;SDS011;4336;49.310;8.646;2023-02-22T04:46:58;18.50;;;14.63;;
8596;SDS011;4336;49.310;8.646;2023-02-22T04:49:24;17.57;;;14.87;;
8596;SDS011;4336;49.310;8.646;2023-02-22T04:51:53;17.77;;;15.90;;
8596;SDS011;4336;49.310;8.646;2023-02-22T04:54:23;16.30;;;14.60;;
8596;SDS011;4336;49.310;8.646;2023-02-22T04:56:49;21.50;;;16.50;;
8596;SDS011;4336;49.310;8.646;2023-02-22T04:59:16;18.47;;;15.90;;
8596;SDS011;4336;49.310;8.646;2023-02-22T05:01:46;18.43;;;16.20;;
8596;SDS011;4336;49.310;8.646;2023-02-22T05:04:12;18.23;;;15.63;;
8596;SDS011;4336;49.310;8.646;2023-02-22T05:06:38;21.43;;;16.17;;
8596;SDS011;4336;49.310;8.646;2023-02-22T05:09:04;21.17;;;17.53;;
8596;SDS011;4336;49.310;8.646;2023-02-22T05:11:30;20.57;;;16.27;;
8596;SDS011;4336;49.310;8.646;2023-02-22T05:13:56;19.83;;;17.63;;
8596;SDS011;4336;49.310;8.646;2023-02-22T05:16:22;18.87;;;15.87;;
8596;SDS011;4336;49.310;8.646;2023-02-22T05:18:49;19.47;;;16.57;;
8596;SDS011;4336;49.310;8.646;2023-02-22T05:21:15;25.40;;;16.87;;
8596;SDS011;4336;49.310;8.646;2023-02-22T05:23:41;17.70;;;15.87;;
8596;SDS011;4336;49.310;8.646;2023-02-22T05:26:07;21.13;;;17.20;;
8596;SDS011;4336;49.310;8.646;2023-02-22T05:28:34;20.87;;;15.63;;
8596;SDS011;4336;49.310;8.646;2023-02-22T05:31:00;22.13;;;17.53;;
8596;SDS011;4336;49.310;8.646;2023-02-22T05:33:27;19.27;;;16.80;;
8596;SDS011;4336;49.310;8.646;2023-02-22T05:35:53;21.87;;;17.27;;
8596;SDS011;4336;49.310;8.646;2023-02-22T05:38:20;22.13;;;18.07;;
8596;SDS011;4336;49.310;8.646;2023-02-22T05:40:47;20.37;;;16.87;;
8596;SDS011;4336;49.310;8.646;2023-02-22T05:43:13;21.10;;;16.47;;
8596;SDS011;4336;49.310;8.646;2023-02-22T05:45:39;18.03;;;15.80;;
8596;SDS011;4336;49.310;8.646;2023-02-22T05:48:06;23.60;;;17.53;;
8596;SDS011;4336;49.310;8.646;2023-02-22T05:50:32;17.47;;;14.77;;
8596;SDS011;4336;49.310;8.646;2023-02-22T05:52:59;21.50;;;18.20;;
8596;SDS011;4336;49.310;8.646;2023-02-22T05:55:25;24.57;;;18.87;;
8596;SDS011;4336;49.310;8.646;2023-02-22T05:57:51;20.63;;;17.07;;
8596;SDS011;4336;49.310;8.646;2023-02-22T06:00:19;21.97;;;18.90;;
8596;SDS011;4336;49.310;8.646;2023-02-22T06:02:52;22.70;;;19.27;;
8596;SDS011;4336;49.310;8.646;2023-02-22T06:05:18;20.33;;;17.17;;
8596;SDS011;4336;49.310;8.646;2023-02-22T06:07:44;25.83;;;17.13;;
8596;SDS011;4336;49.310;8.646;2023-02-22T06:10:10;21.27;;;17.90;;
8596;SDS011;4336;49.310;8.646;2023-02-22T06:12:38;26.33;;;19.20;;
8596;SDS011;4336;49.310;8.646;2023-02-22T06:15:04;22.20;;;18.83;;
8596;SDS011;4336;49.310;8.646;2023-02-22T06:17:30;28.40;;;20.87;;
8596;SDS011;4336;49.310;8.646;2023-02-22T06:19:57;25.20;;;19.23;;
8596;SDS011;4336;49.310;8.646;2023-02-22T06:22:23;24.27;;;19.63;;
8596;SDS011;4336;49.310;8.646;2023-02-22T06:24:49;26.80;;;20.77;;
8596;SDS011;4336;49.310;8.646;2023-02-22T06:27:15;25.30;;;21.40;;
8596;SDS011;4336;49.310;8.646;2023-02-22T06:29:45;23.53;;;19.67;;
8596;SDS011;4336;49.310;8.646;2023-02-22T06:32:12;24.63;;;20.00;;
8596;SDS011;4336;49.310;8.646;2023-02-22T06:34:38;25.30;;;20.17;;
8596;SDS011;4336;49.310;8.646;2023-02-22T06:37:05;25.03;;;20.77;;
8596;SDS011;4336;49.310;8.646;2023-02-22T06:39:32;22.63;;;20.20;;
8596;SDS011;4336;49.310;8.646;2023-02-22T06:41:58;27.40;;;21.80;;
8596;SDS011;4336;49.310;8.646;2023-02-22T06:44:24;27.77;;;22.83;;
8596;SDS011;4336;49.310;8.646;2023-02-22T06:46:51;26.63;;;21.70;;
8596;SDS011;4336;49.310;8.646;2023-02-22T06:49:17;30.10;;;21.00;;
8596;SDS011;4336;49.310;8.646;2023-02-22T06:51:44;25.97;;;20.43;;
8596;SDS011;4336;49.310;8.646;2023-02-22T06:54:10;29.83;;;19.80;;
8596;SDS011;4336;49.310;8.646;2023-02-22T06:56:37;27.47;;;20.80;;
8596;SDS011;4336;49.310;8.646;2023-02-22T06:59:03;28.10;;;21.23;;
8596;SDS011;4336;49.310;8.646;2023-02-22T07:01:29;27.30;;;21.37;;
8596;SDS011;4336;49.310;8.646;2023-02-22T07:03:55;25.77;;;20.30;;
8596;SDS011;4336;49.310;8.646;2023-02-22T07:06:21;27.47;;;20.07;;
8596;SDS011;4336;49.310;8.646;2023-02-22T07:08:48;28.57;;;20.20;;
8596;SDS011;4336;49.310;8.646;2023-02-22T07:11:14;23.57;;;19.80;;
8596;SDS011;4336;49.310;8.646;2023-02-22T07:13:40;23.10;;;19.90;;
8596;SDS011;4336;49.310;8.646;2023-02-22T07:16:06;23.77;;;19.53;;
8596;SDS011;4336;49.310;8.646;2023-02-22T07:18:33;21.77;;;18.93;;
8596;SDS011;4336;49.310;8.646;2023-02-22T07:20:59;22.97;;;19.50;;
8596;SDS011;4336;49.310;8.646;2023-02-22T07:23:25;22.13;;;19.00;;
8596;SDS011;4336;49.310;8.646;2023-02-22T07:25:51;21.97;;;18.10;;
8596;SDS011;4336;49.310;8.646;2023-02-22T07:28:17;20.87;;;18.67;;
8596;SDS011;4336;49.310;8.646;2023-02-22T07:30:43;25.67;;;19.50;;
8596;SDS011;4336;49.310;8.646;2023-02-22T07:33:10;22.50;;;19.27;;
8596;SDS011;4336;49.310;8.646;2023-02-22T07:35:38;23.53;;;17.77;;
8596;SDS011;4336;49.310;8.646;2023-02-22T07:38:05;23.60;;;17.90;;
8596;SDS011;4336;49.310;8.646;2023-02-22T07:40:32;22.43;;;19.03;;
8596;SDS011;4336;49.310;8.646;2023-02-22T07:43:03;19.40;;;17.40;;
8596;SDS011;4336;49.310;8.646;2023-02-22T07:45:30;20.37;;;17.27;;
8596;SDS011;4336;49.310;8.646;2023-02-22T07:47:57;20.50;;;18.30;;
8596;SDS011;4336;49.310;8.646;2023-02-22T07:50:24;18.20;;;16.20;;
8596;SDS011;4336;49.310;8.646;2023-02-22T07:52:52;20.67;;;16.70;;
8596;SDS011;4336;49.310;8.646;2023-02-22T07:55:20;21.67;;;18.70;;
8596;SDS011;4336;49.310;8.646;2023-02-22T07:57:47;24.53;;;18.83;;
8596;SDS011;4336;49.310;8.646;2023-02-22T08:00:14;19.43;;;17.37;;
8596;SDS011;4336;49.310;8.646;2023-02-22T08:02:41;22.60;;;16.47;;
8596;SDS011;4336;49.310;8.646;2023-02-22T08:05:08;21.77;;;17.03;;
8596;SDS011;4336;49.310;8.646;2023-02-22T08:07:35;23.47;;;17.43;;
8596;SDS011;4336;49.310;8.646;2023-02-22T08:10:02;20.47;;;16.17;;
8596;SDS011;4336;49.310;8.646;2023-02-22T08:12:34;20.93;;;17.00;;
8596;SDS011;4336;49.310;8.646;2023-02-22T08:15:00;17.47;;;14.47;;
8596;SDS011;4336;49.310;8.646;2023-02-22T08:17:27;18.63;;;16.73;;
8596;SDS011;4336;49.310;8.646;2023-02-22T08:19:53;22.07;;;16.53;;
8596;SDS011;4336;49.310;8.646;2023-02-22T08:22:20;19.23;;;16.30;;
8596;SDS011;4336;49.310;8.646;2023-02-22T08:24:46;25.57;;;16.23;;
8596;SDS011;4336;49.310;8.646;2023-02-22T08:27:12;19.23;;;15.70;;
8596;SDS011;4336;49.310;8.646;2023-02-22T08:29:38;17.77;;;15.87;;
8596;SDS011;4336;49.310;8.646;2023-02-22T08:32:04;17.03;;;14.70;;
8596;SDS011;4336;49.310;8.646;2023-02-22T08:34:31;19.30;;;15.50;;
8596;SDS011;4336;49.310;8.646;2023-02-22T08:36:57;17.00;;;14.50;;
8596;SDS011;4336;49.310;8.646;2023-02-22T08:39:23;20.37;;;15.40;;
8596;SDS011;4336;49.310;8.646;2023-02-22T08:41:49;19.83;;;15.10;;
8596;SDS011;4336;49.310;8.646;2023-02-22T08:44:16;17.37;;;15.03;;
8596;SDS011;4336;49.310;8.646;2023-02-22T08:46:42;20.07;;;15.10;;
8596;SDS011;4336;49.310;8.646;2023-02-22T08:49:08;17.20;;;15.37;;
8596;SDS011;4336;49.310;8.646;2023-02-22T08:51:35;15.87;;;14.27;;
8596;SDS011;4336;49.310;8.646;2023-02-22T08:54:02;18.33;;;14.67;;
8596;SDS011;4336;49.310;8.646;2023-02-22T08:56:30;17.43;;;15.53;;
8596;SDS011;4336;49.310;8.646;2023-02-22T08:58:57;15.93;;;14.13;;
8596;SDS011;4336;49.310;8.646;2023-02-22T09:01:23;16.43;;;14.70;;
8596;SDS011;4336;49.310;8.646;2023-02-22T09:03:50;16.43;;;14.57;;
8596;SDS011;4336;49.310;8.646;2023-02-22T09:06:17;17.63;;;14.67;;
8596;SDS011;4336;49.310;8.646;2023-02-22T09:08:43;20.83;;;15.30;;
8596;SDS011;4336;49.310;8.646;2023-02-22T09:11:08;21.77;;;15.27;;
8596;SDS011;4336;49.310;8.646;2023-02-22T09:13:34;16.00;;;14.17;;
8596;SDS011;4336;49.310;8.646;2023-02-22T09:16:00;20.10;;;12.23;;
8596;SDS011;4336;49.310;8.646;2023-02-22T09:18:26;18.70;;;14.97;;
8596;SDS011;4336;49.310;8.646;2023-02-22T09:20:53;24.43;;;14.87;;
8596;SDS011;4336;49.310;8.646;2023-02-22T09:23:19;23.27;;;16.67;;
8596;SDS011;4336;49.310;8.646;2023-02-22T09:25:48;18.33;;;14.77;;
8596;SDS011;4336;49.310;8.646;2023-02-22T09:28:14;16.50;;;14.03;;
8596;SDS011;4336;49.310;8.646;2023-02-22T09:30:41;16.30;;;14.27;;
8596;SDS011;4336;49.310;8.646;2023-02-22T09:35:34;18.57;;;14.10;;
8596;SDS011;4336;49.310;8.646;2023-02-22T09:38:00;18.20;;;13.87;;
8596;SDS011;4336;49.310;8.646;2023-02-22T09:40:31;16.37;;;14.47;;
8596;SDS011;4336;49.310;8.646;2023-02-22T09:43:05;16.27;;;14.70;;
8596;SDS011;4336;49.310;8.646;2023-02-22T09:45:38;16.90;;;15.13;;
8596;SDS011;4336;49.310;8.646;2023-02-22T09:48:28;16.80;;;14.43;;
8596;SDS011;4336;49.310;8.646;2023-02-22T09:50:56;18.57;;;14.17;;
8596;SDS011;4336;49.310;8.646;2023-02-22T09:53:25;19.70;;;14.30;;
8596;SDS011;4336;49.310;8.646;2023-02-22T09:55:56;17.70;;;14.60;;
8596;SDS011;4336;49.310;8.646;2023-02-22T09:58:32;18.30;;;12.67;;
8596;SDS011;4336;49.310;8.646;2023-02-22T10:06:37;18.80;;;14.40;;
8596;SDS011;4336;49.310;8.646;2023-02-22T10:09:07;19.50;;;13.87;;
8596;SDS011;4336;49.310;8.646;2023-02-22T10:11:38;17.53;;;13.73;;
8596;SDS011;4336;49.310;8.646;2023-02-22T10:22:21;18.30;;;14.40;;
8596;SDS011;4336;49.310;8.646;2023-02-22T10:24:57;15.80;;;14.10;;
8596;SDS011;4336;49.310;8.646;2023-02-22T10:27:36;15.37;;;13.63;;
8596;SDS011;4336;49.310;8.646;2023-02-22T10:30:22;16.57;;;14.80;;
8596;SDS011;4336;49.310;8.646;2023-02-22T10:32:58;14.83;;;13.23;;
8596;SDS011;4336;49.310;8.646;2023-02-22T10:35:36;18.77;;;13.50;;
8596;SDS011;4336;49.310;8.646;2023-02-22T10:41:01;15.17;;;13.67;;
8596;SDS011;4336;49.310;8.646;2023-02-22T10:43:35;17.47;;;13.63;;
8596;SDS011;4336;49.310;8.646;2023-02-22T10:46:02;15.77;;;13.97;;
8596;SDS011;4336;49.310;8.646;2023-02-22T10:48:30;15.43;;;13.90;;
8596;SDS011;4336;49.310;8.646;2023-02-22T10:51:00;15.40;;;13.77;;
8596;SDS011;4336;49.310;8.646;2023-02-22T10:53:28;17.30;;;13.90;;
8596;SDS011;4336;49.310;8.646;2023-02-22T10:56:04;16.60;;;13.23;;
8596;SDS011;4336;49.310;8.646;2023-02-22T10:58:44;16.80;;;13.23;;
8596;SDS011;4336;49.310;8.646;2023-02-22T11:04:00;20.50;;;13.77;;
8596;SDS011;4336;49.310;8.646;2023-02-22T11:06:37;19.17;;;16.00;;
8596;SDS011;4336;49.310;8.646;2023-02-22T11:09:09;16.07;;;13.20;;
8596;SDS011;4336;49.310;8.646;2023-02-22T11:11:43;16.53;;;13.30;;
8596;SDS011;4336;49.310;8.646;2023-02-22T11:14:10;15.63;;;13.97;;
8596;SDS011;4336;49.310;8.646;2023-02-22T11:16:41;20.63;;;18.63;;
8596;SDS011;4336;49.310;8.646;2023-02-22T11:21:48;15.20;;;13.43;;
8596;SDS011;4336;49.310;8.646;2023-02-22T11:24:17;18.67;;;13.70;;
8596;SDS011;4336;49.310;8.646;2023-02-22T11:26:49;16.97;;;13.30;;
8596;SDS011;4336;49.310;8.646;2023-02-22T11:29:24;14.67;;;13.27;;
8596;SDS011;4336;49.310;8.646;2023-02-22T11:31:56;14.03;;;12.50;;
8596;SDS011;4336;49.310;8.646;2023-02-22T11:34:28;14.47;;;13.07;;
8596;SDS011;4336;49.310;8.646;2023-02-22T11:37:13;14.13;;;12.40;;
8596;SDS011;4336;49.310;8.646;2023-02-22T11:42:37;16.80;;;13.67;;
8596;SDS011;4336;49.310;8.646;2023-02-22T11:45:08;19.00;;;13.30;;
8596;SDS011;4336;49.310;8.646;2023-02-22T11:47:35;17.90;;;13.37;;
8596;SDS011;4336;49.310;8.646;2023-02-22T11:50:25;20.40;;;13.77;;
8596;SDS011;4336;49.310;8.646;2023-02-22T11:53:39;15.07;;;13.63;;
8596;SDS011;4336;49.310;8.646;2023-02-22T12:01:44;16.00;;;14.33;;
8596;SDS011;4336;49.310;8.646;2023-02-22T12:13:24;16.37;;;14.77;;
8596;SDS011;4336;49.310;8.646;2023-02-22T12:19:07;16.27;;;14.63;;
8596;SDS011;4336;49.310;8.646;2023-02-22T12:21:39;16.07;;;14.43;;
8596;SDS011;4336;49.310;8.646;2023-02-22T12:24:15;17.30;;;15.50;;
8596;SDS011;4336;49.310;8.646;2023-02-22T12:32:13;17.23;;;15.43;;
8596;SDS011;4336;49.310;8.646;2023-02-22T12:34:44;20.63;;;15.07;;
8596;SDS011;4336;49.310;8.646;2023-02-22T12:37:18;17.30;;;15.50;;
8596;SDS011;4336;49.310;8.646;2023-02-22T12:40:02;17.37;;;14.97;;
8596;SDS011;4336;49.310;8.646;2023-02-22T12:48:21;16.90;;;15.20;;
8596;SDS011;4336;49.310;8.646;2023-02-22T12:50:51;16.13;;;14.53;;
8596;SDS011;4336;49.310;8.646;2023-02-22T12:53:24;17.43;;;14.87;;
8596;SDS011;4336;49.310;8.646;2023-02-22T12:56:14;16.23;;;14.40;;
8596;SDS011;4336;49.310;8.646;2023-02-22T12:58:50;16.50;;;14.87;;
8596;SDS011;4336;49.310;8.646;2023-02-22T13:01:22;16.50;;;14.80;;
8596;SDS011;4336;49.310;8.646;2023-02-22T13:03:50;20.00;;;13.80;;
8596;SDS011;4336;49.310;8.646;2023-02-22T13:06:24;19.00;;;15.10;;
8596;SDS011;4336;49.310;8.646;2023-02-22T13:11:54;17.03;;;15.23;;
8596;SDS011;4336;49.310;8.646;2023-02-22T13:17:15;18.43;;;15.50;;
8596;SDS011;4336;49.310;8.646;2023-02-22T13:19:54;24.07;;;15.70;;
8596;SDS011;4336;49.310;8.646;2023-02-22T13:30:44;18.87;;;15.17;;
8596;SDS011;4336;49.310;8.646;2023-02-22T13:36:08;15.70;;;14.10;;
8596;SDS011;4336;49.310;8.646;2023-02-22T13:52:27;17.17;;;15.00;;
8596;SDS011;4336;49.310;8.646;2023-02-22T13:54:57;16.30;;;14.57;;
8596;SDS011;4336;49.310;8.646;2023-02-22T13:57:29;18.57;;;14.77;;
8596;SDS011;4336;49.310;8.646;2023-02-22T14:10:50;16.20;;;14.50;;
8596;SDS011;4336;49.310;8.646;2023-02-22T14:13:19;16.43;;;14.83;;
8596;SDS011;4336;49.310;8.646;2023-02-22T14:18:22;18.87;;;16.43;;
8596;SDS011;4336;49.310;8.646;2023-02-22T14:21:05;18.13;;;14.57;;
8596;SDS011;4336;49.310;8.646;2023-02-22T14:23:42;16.53;;;14.80;;
8596;SDS011;4336;49.310;8.646;2023-02-22T14:26:14;21.30;;;14.87;;
8596;SDS011;4336;49.310;8.646;2023-02-22T14:28:49;16.40;;;14.70;;
8596;SDS011;4336;49.310;8.646;2023-02-22T14:31:17;18.10;;;14.60;;
8596;SDS011;4336;49.310;8.646;2023-02-22T14:33:56;16.87;;;15.10;;
8596;SDS011;4336;49.310;8.646;2023-02-22T14:36:23;18.83;;;14.73;;
8596;SDS011;4336;49.310;8.646;2023-02-22T14:38:53;17.57;;;15.03;;
8596;SDS011;4336;49.310;8.646;2023-02-22T14:41:23;18.63;;;13.90;;
8596;SDS011;4336;49.310;8.646;2023-02-22T14:43:52;18.27;;;15.20;;
8596;SDS011;4336;49.310;8.646;2023-02-22T14:46:20;17.07;;;15.27;;
8596;SDS011;4336;49.310;8.646;2023-02-22T14:48:48;20.03;;;15.60;;
8596;SDS011;4336;49.310;8.646;2023-02-22T14:51:28;15.87;;;14.13;;
8596;SDS011;4336;49.310;8.646;2023-02-22T14:54:02;19.30;;;14.90;;
8596;SDS011;4336;49.310;8.646;2023-02-22T14:56:36;17.07;;;13.90;;
8596;SDS011;4336;49.310;8.646;2023-02-22T14:59:22;25.20;;;15.00;;
8596;SDS011;4336;49.310;8.646;2023-02-22T15:02:02;18.83;;;16.93;;
8596;SDS011;4336;49.310;8.646;2023-02-22T15:04:36;21.80;;;15.80;;
8596;SDS011;4336;49.310;8.646;2023-02-22T15:07:07;21.97;;;15.87;;
8596;SDS011;4336;49.310;8.646;2023-02-22T15:09:44;16.80;;;15.10;;
8596;SDS011;4336;49.310;8.646;2023-02-22T15:12:21;18.87;;;14.10;;
8596;SDS011;4336;49.310;8.646;2023-02-22T15:15:15;21.27;;;15.87;;
8596;SDS011;4336;49.310;8.646;2023-02-22T15:17:47;20.53;;;16.70;;
8596;SDS011;4336;49.310;8.646;2023-02-22T15:20:14;19.50;;;14.87;;
8596;SDS011;4336;49.310;8.646;2023-02-22T15:22:40;19.63;;;16.77;;
8596;SDS011;4336;49.310;8.646;2023-02-22T15:25:07;21.57;;;16.80;;
8596;SDS011;4336;49.310;8.646;2023-02-22T15:27:36;21.93;;;15.27;;
8596;SDS011;4336;49.310;8.646;2023-02-22T15:30:04;21.40;;;15.27;;
8596;SDS011;4336;49.310;8.646;2023-02-22T15:32:39;20.83;;;16.23;;
8596;SDS011;4336;49.310;8.646;2023-02-22T15:35:12;26.97;;;16.73;;
8596;SDS011;4336;49.310;8.646;2023-02-22T15:37:43;26.03;;;17.07;;
8596;SDS011;4336;49.310;8.646;2023-02-22T15:40:17;18.93;;;16.53;;
8596;SDS011;4336;49.310;8.646;2023-02-22T15:42:49;21.00;;;16.47;;
8596;SDS011;4336;49.310;8.646;2023-02-22T15:45:18;21.73;;;17.00;;
8596;SDS011;4336;49.310;8.646;2023-02-22T15:47:45;21.50;;;17.10;;
8596;SDS011;4336;49.310;8.646;2023-02-22T15:50:27;20.53;;;16.30;;
8596;SDS011;4336;49.310;8.646;2023-02-22T15:55:32;22.03;;;17.20;;
8596;SDS011;4336;49.310;8.646;2023-02-22T15:57:59;21.60;;;17.47;;
8596;SDS011;4336;49.310;8.646;2023-02-22T16:00:27;21.50;;;17.03;;
8596;SDS011;4336;49.310;8.646;2023-02-22T16:03:00;34.10;;;18.17;;
8596;SDS011;4336;49.310;8.646;2023-02-22T16:05:30;24.80;;;18.13;;
8596;SDS011;4336;49.310;8.646;2023-02-22T16:07:57;28.33;;;17.80;;
8596;SDS011;4336;49.310;8.646;2023-02-22T16:10:29;21.80;;;17.70;;
8596;SDS011;4336;49.310;8.646;2023-02-22T16:13:08;20.70;;;16.10;;
8596;SDS011;4336;49.310;8.646;2023-02-22T16:15:34;21.90;;;18.13;;
8596;SDS011;4336;49.310;8.646;2023-02-22T16:18:34;24.33;;;17.67;;
8596;SDS011;4336;49.310;8.646;2023-02-22T16:21:05;21.50;;;17.13;;
8596;SDS011;4336;49.310;8.646;2023-02-22T16:23:41;20.90;;;17.27;;
8596;SDS011;4336;49.310;8.646;2023-02-22T16:28:55;18.40;;;15.50;;
8596;SDS011;4336;49.310;8.646;2023-02-22T16:31:22;25.33;;;16.30;;
8596;SDS011;4336;49.310;8.646;2023-02-22T16:33:49;22.60;;;17.27;;
8596;SDS011;4336;49.310;8.646;2023-02-22T16:36:16;20.30;;;17.83;;
8596;SDS011;4336;49.310;8.646;2023-02-22T16:38:43;23.30;;;18.83;;
8596;SDS011;4336;49.310;8.646;2023-02-22T16:41:12;24.83;;;20.30;;
8596;SDS011;4336;49.310;8.646;2023-02-22T16:43:43;27.30;;;21.07;;
8596;SDS011;4336;49.310;8.646;2023-02-22T16:46:11;22.30;;;19.63;;
8596;SDS011;4336;49.310;8.646;2023-02-22T16:48:40;23.03;;;18.50;;
8596;SDS011;4336;49.310;8.646;2023-02-22T16:51:16;28.43;;;17.80;;
8596;SDS011;4336;49.310;8.646;2023-02-22T16:53:42;29.27;;;18.97;;
8596;SDS011;4336;49.310;8.646;2023-02-22T16:56:09;22.27;;;18.90;;
8596;SDS011;4336;49.310;8.646;2023-02-22T16:58:37;22.20;;;17.60;;
8596;SDS011;4336;49.310;8.646;2023-02-22T17:01:04;24.23;;;19.47;;
8596;SDS011;4336;49.310;8.646;2023-02-22T17:03:30;22.20;;;18.67;;
8596;SDS011;4336;49.310;8.646;2023-02-22T17:05:56;27.17;;;19.30;;
8596;SDS011;4336;49.310;8.646;2023-02-22T17:08:23;22.30;;;19.30;;
8596;SDS011;4336;49.310;8.646;2023-02-22T17:10:49;19.63;;;16.77;;
8596;SDS011;4336;49.310;8.646;2023-02-22T17:13:20;25.40;;;19.80;;
8596;SDS011;4336;49.310;8.646;2023-02-22T17:15:47;23.57;;;18.77;;
8596;SDS011;4336;49.310;8.646;2023-02-22T17:18:13;23.57;;;19.17;;
8596;SDS011;4336;49.310;8.646;2023-02-22T17:20:40;23.53;;;18.20;;